Time;durP1;ratioP1;P1;durP2;ratioP2;P2;SDS_P1;SDS_P2;PMS_P1;PMS_P2;Temp;Humidity;BMP_temperature;BMP_pressure;BME280_temperature;BME280_humidity;BME280_pressure;Samples;Min_cycle;Max_cycle;Signal;HPM_P1;HPM_P2
2021/07/04 00:00:16;;;;;;;6.75;5.20;;;20.10;73.70;;;;;;5025579;28;20081;-71
2021/07/04 00:02:41;;;;;;;10.27;5.15;;;20.00;73.60;;;;;;5024433;28;20337;-71
2021/07/04 00:05:08;;;;;;;9.90;5.93;;;20.10;73.70;;;;;;5024771;28;20044;-71
2021/07/04 00:07:34;;;;;;;8.45;5.57;;;20.00;73.90;;;;;;4998364;28;20041;-71
2021/07/04 00:09:59;;;;;;;10.02;5.88;;;20.00;73.70;;;;;;5023980;28;20068;-70
2021/07/04 00:12:25;;;;;;;8.13;5.80;;;19.90;73.70;;;;;;5023667;28;20107;-71
2021/07/04 00:14:50;;;;;;;7.07;5.50;;;20.00;73.80;;;;;;5024357;28;20033;-71
2021/07/04 00:17:16;;;;;;;7.00;5.50;;;19.90;74.00;;;;;;5040485;28;20041;-70
2021/07/04 00:19:42;;;;;;;7.57;5.55;;;19.90;74.00;;;;;;5024459;28;20030;-70
2021/07/04 00:22:08;;;;;;;6.75;4.97;;;19.90;74.10;;;;;;5023445;28;20033;-70
2021/07/04 00:24:34;;;;;;;8.15;5.68;;;19.80;74.40;;;;;;5023478;28;20045;-70
2021/07/04 00:27:00;;;;;;;7.35;5.90;;;19.80;74.60;;;;;;5024180;28;20034;-70
2021/07/04 00:29:25;;;;;;;8.02;5.50;;;19.80;74.50;;;;;;5007334;28;20149;-70
2021/07/04 00:31:51;;;;;;;8.18;5.45;;;19.80;74.90;;;;;;5023607;28;20249;-70
2021/07/04 00:34:17;;;;;;;9.10;6.07;;;19.80;75.00;;;;;;5024277;28;20045;-70
2021/07/04 00:36:42;;;;;;;7.57;5.38;;;19.70;75.30;;;;;;5023239;28;20053;-70
2021/07/04 00:39:08;;;;;;;9.55;5.70;;;19.50;75.80;;;;;;5024213;28;20256;-70
2021/07/04 00:41:33;;;;;;;9.38;6.13;;;19.50;76.20;;;;;;5024576;28;20105;-70
2021/07/04 00:43:59;;;;;;;8.00;5.50;;;19.70;75.90;;;;;;5023929;28;20380;-70
2021/07/04 00:46:27;;;;;;;7.97;5.90;;;19.40;76.30;;;;;;5023100;28;20341;-70
2021/07/04 00:48:52;;;;;;;8.55;5.90;;;19.40;76.70;;;;;;5024304;28;20198;-71
2021/07/04 00:51:18;;;;;;;8.50;6.22;;;19.60;76.30;;;;;;5022971;28;20072;-72
2021/07/04 00:53:44;;;;;;;8.10;5.53;;;19.70;76.00;;;;;;5023390;28;20085;-70
2021/07/04 00:56:09;;;;;;;7.72;5.90;;;19.60;76.30;;;;;;5022919;28;20045;-70
2021/07/04 00:58:35;;;;;;;7.82;5.80;;;19.60;76.50;;;;;;5013798;28;20034;-70
2021/07/04 01:01:01;;;;;;;8.77;6.38;;;19.70;76.20;;;;;;5006428;28;20105;-70
2021/07/04 01:03:26;;;;;;;9.18;6.15;;;19.70;76.00;;;;;;5022818;28;20065;-70
2021/07/04 01:05:52;;;;;;;8.00;6.30;;;19.50;76.60;;;;;;5023591;28;20034;-70
2021/07/04 01:08:17;;;;;;;8.10;5.68;;;19.60;76.40;;;;;;5023256;28;20029;-70
2021/07/04 01:10:43;;;;;;;7.63;5.90;;;19.60;75.90;;;;;;5006866;28;20333;-71
2021/07/04 01:13:08;;;;;;;7.35;5.72;;;19.60;76.50;;;;;;5022714;28;20033;-71
2021/07/04 01:15:34;;;;;;;8.77;6.10;;;19.60;77.00;;;;;;5022889;28;20037;-71
2021/07/04 01:18:01;;;;;;;8.45;6.07;;;19.50;76.70;;;;;;5023599;28;20088;-71
2021/07/04 01:20:28;;;;;;;9.52;6.47;;;19.50;77.00;;;;;;4986721;28;20269;-71
2021/07/04 01:23:00;;;;;;;8.82;6.75;;;19.40;77.60;;;;;;5022536;28;20042;-71
2021/07/04 01:25:27;;;;;;;8.80;6.13;;;19.30;77.70;;;;;;5023019;28;20034;-71
2021/07/04 01:27:52;;;;;;;12.00;6.40;;;19.30;78.00;;;;;;5022376;28;20030;-71
2021/07/04 01:30:18;;;;;;;8.25;6.30;;;19.30;78.10;;;;;;5022660;28;20388;-71
2021/07/04 01:32:44;;;;;;;9.40;6.45;;;19.30;78.20;;;;;;5006583;28;20056;-71
2021/07/04 01:35:10;;;;;;;9.55;6.20;;;19.20;78.30;;;;;;5023007;28;20041;-71
2021/07/04 01:37:35;;;;;;;9.43;6.10;;;19.10;79.00;;;;;;5005993;28;20034;-71
2021/07/04 01:40:01;;;;;;;10.43;6.65;;;19.10;78.20;;;;;;5022363;28;20036;-71
2021/07/04 01:42:26;;;;;;;9.68;6.13;;;19.10;78.30;;;;;;5022341;28;20067;-71
2021/07/04 01:44:52;;;;;;;12.73;6.43;;;19.10;78.70;;;;;;5022959;28;20325;-71
2021/07/04 01:47:17;;;;;;;9.20;6.45;;;19.20;78.40;;;;;;5023540;28;20104;-71
2021/07/04 01:49:43;;;;;;;9.68;5.95;;;19.20;78.40;;;;;;5038880;28;20045;-71
2021/07/04 01:52:09;;;;;;;10.68;6.10;;;19.10;78.70;;;;;;5023480;28;20225;-71
2021/07/04 01:54:34;;;;;;;8.35;6.38;;;19.20;78.40;;;;;;5022491;28;20034;-71
2021/07/04 01:57:11;;;;;;;10.75;6.70;;;19.20;78.80;;;;;;5027643;28;20034;-71
2021/07/04 01:59:38;;;;;;;8.07;6.20;;;19.00;79.00;;;;;;5027555;28;20080;-71
2021/07/04 02:02:04;;;;;;;9.52;6.28;;;18.90;79.20;;;;;;5027665;28;20034;-71
2021/07/04 02:04:29;;;;;;;8.52;6.40;;;19.00;78.90;;;;;;5027334;28;20089;-71
2021/07/04 02:06:55;;;;;;;9.10;5.97;;;19.10;78.80;;;;;;5026085;28;20030;-71
2021/07/04 02:09:20;;;;;;;8.48;6.18;;;19.00;79.10;;;;;;5027251;28;20026;-71
2021/07/04 02:11:46;;;;;;;7.40;5.93;;;18.90;79.20;;;;;;5026414;28;20038;-71
2021/07/04 02:14:11;;;;;;;8.95;6.03;;;18.90;79.10;;;;;;5027286;28;20060;-71
2021/07/04 02:16:37;;;;;;;9.55;6.40;;;18.90;79.40;;;;;;5026902;28;20121;-71
2021/07/04 02:19:02;;;;;;;9.68;6.18;;;18.90;79.40;;;;;;5027213;28;20033;-72
2021/07/04 02:21:28;;;;;;;8.35;6.20;;;18.80;80.00;;;;;;5042114;28;20030;-71
2021/07/04 02:23:54;;;;;;;10.30;6.30;;;18.80;79.70;;;;;;5027564;28;20033;-71
2021/07/04 02:26:19;;;;;;;8.48;6.53;;;19.00;79.50;;;;;;5009740;28;20030;-71
2021/07/04 02:28:45;;;;;;;11.13;6.93;;;19.00;79.30;;;;;;5025882;28;20044;-71
2021/07/04 02:31:10;;;;;;;10.55;6.10;;;18.90;79.40;;;;;;5026604;28;20337;-71
2021/07/04 02:33:36;;;;;;;9.23;6.60;;;19.00;79.00;;;;;;5025895;28;20033;-71
2021/07/04 02:36:01;;;;;;;9.85;6.55;;;18.80;80.00;;;;;;5026002;28;20044;-71
2021/07/04 02:38:27;;;;;;;9.48;6.95;;;18.80;80.10;;;;;;5025588;28;20030;-71
2021/07/04 02:40:53;;;;;;;9.82;7.00;;;18.90;79.90;;;;;;5018659;28;20034;-71
2021/07/04 02:43:21;;;;;;;9.85;6.32;;;18.90;79.60;;;;;;5041907;28;20344;-71
2021/07/04 02:45:46;;;;;;;9.85;6.88;;;18.90;79.70;;;;;;5025525;28;20026;-71
2021/07/04 02:48:12;;;;;;;8.95;6.20;;;19.20;78.60;;;;;;5026021;28;20092;-71
2021/07/04 02:50:38;;;;;;;8.52;6.93;;;19.30;78.60;;;;;;5025682;28;20041;-71
2021/07/04 02:53:04;;;;;;;8.57;6.40;;;19.20;79.10;;;;;;5025095;28;20041;-71
2021/07/04 02:55:29;;;;;;;10.48;7.03;;;19.10;79.20;;;;;;5026193;28;20038;-71
2021/07/04 02:57:55;;;;;;;8.38;6.85;;;19.10;79.60;;;;;;5025123;28;20064;-72
2021/07/04 03:00:22;;;;;;;8.18;6.20;;;19.00;79.80;;;;;;5024930;28;20025;-71
2021/07/04 03:02:48;;;;;;;8.25;6.13;;;19.00;79.70;;;;;;5025483;28;20072;-71
2021/07/04 03:05:13;;;;;;;10.90;6.78;;;19.00;79.10;;;;;;5041832;28;20042;-71
2021/07/04 03:07:39;;;;;;;10.73;6.55;;;19.00;79.10;;;;;;5025067;28;20033;-71
2021/07/04 03:10:06;;;;;;;9.93;6.43;;;18.90;79.90;;;;;;5024501;28;20037;-71
2021/07/04 03:12:32;;;;;;;9.70;6.38;;;18.90;79.30;;;;;;5026039;28;20038;-71
2021/07/04 03:14:57;;;;;;;9.57;6.97;;;18.90;79.40;;;;;;5026921;28;20072;-71
2021/07/04 03:17:23;;;;;;;10.18;5.97;;;18.80;79.80;;;;;;5025132;28;20040;-71
2021/07/04 03:19:48;;;;;;;8.63;6.22;;;18.80;79.60;;;;;;5024479;28;20029;-71
2021/07/04 03:22:14;;;;;;;8.23;5.90;;;19.00;78.80;;;;;;5024428;28;20234;-71
2021/07/04 03:24:40;;;;;;;9.23;5.75;;;19.20;78.90;;;;;;5024833;28;20089;-71
2021/07/04 03:27:07;;;;;;;8.77;6.40;;;19.10;78.70;;;;;;5024907;28;20025;-71
2021/07/04 03:29:33;;;;;;;10.50;6.30;;;19.00;79.30;;;;;;5024943;28;20129;-71
2021/07/04 03:31:58;;;;;;;10.30;6.00;;;19.00;79.30;;;;;;5024587;28;20034;-71
2021/07/04 03:34:24;;;;;;;7.35;5.97;;;18.80;80.10;;;;;;5025480;28;20083;-71
2021/07/04 03:36:50;;;;;;;9.82;6.80;;;18.90;80.10;;;;;;5024660;28;20033;-71
2021/07/04 03:39:15;;;;;;;9.15;6.57;;;18.80;79.90;;;;;;5024794;28;20033;-71
2021/07/04 03:41:41;;;;;;;9.38;6.38;;;18.80;80.30;;;;;;5024176;28;20045;-71
2021/07/04 03:44:06;;;;;;;11.95;6.90;;;18.90;80.00;;;;;;5025288;28;20237;-71
2021/07/04 03:46:32;;;;;;;9.60;6.97;;;18.90;79.80;;;;;;5023976;28;20445;-71
2021/07/04 03:48:57;;;;;;;13.43;7.63;;;18.90;80.10;;;;;;5025590;28;20054;-71
2021/07/04 03:51:23;;;;;;;9.13;7.00;;;18.80;80.50;;;;;;5024051;28;20083;-71
2021/07/04 03:53:49;;;;;;;10.25;7.00;;;18.80;80.60;;;;;;5025475;28;20072;-71
2021/07/04 03:56:14;;;;;;;8.63;6.38;;;18.70;80.70;;;;;;5024381;28;20308;-71
2021/07/04 03:58:40;;;;;;;9.95;6.65;;;18.80;80.30;;;;;;5025261;28;20033;-71
2021/07/04 04:01:05;;;;;;;10.75;7.22;;;18.90;79.90;;;;;;5025028;28;20072;-71
2021/07/04 04:03:31;;;;;;;10.18;6.90;;;19.00;79.70;;;;;;5023980;28;20033;-71
2021/07/04 04:05:57;;;;;;;9.48;6.95;;;18.90;80.00;;;;;;5024547;28;20216;-72
2021/07/04 04:08:23;;;;;;;12.10;6.50;;;18.90;80.30;;;;;;5024220;28;20042;-71
2021/07/04 04:10:49;;;;;;;9.90;6.95;;;18.90;80.40;;;;;;5007009;28;20034;-71
2021/07/04 04:13:14;;;;;;;10.25;6.55;;;18.90;80.60;;;;;;5023674;28;20213;-71
2021/07/04 04:15:40;;;;;;;9.98;6.30;;;19.00;80.20;;;;;;5023561;28;20041;-71
2021/07/04 04:18:06;;;;;;;11.20;6.78;;;19.10;79.50;;;;;;5023523;28;20030;-71
2021/07/04 04:20:32;;;;;;;10.88;6.95;;;19.10;79.90;;;;;;5023717;28;20302;-71
2021/07/04 04:22:57;;;;;;;11.80;7.18;;;19.00;80.40;;;;;;5023236;28;20049;-71
2021/07/04 04:25:23;;;;;;;14.45;7.00;;;19.10;79.80;;;;;;5023733;28;20034;-71
2021/07/04 04:27:48;;;;;;;11.02;6.25;;;19.20;79.90;;;;;;5023971;28;20241;-71
2021/07/04 04:30:16;;;;;;;9.38;6.47;;;19.10;80.00;;;;;;5024197;28;20054;-71
2021/07/04 04:32:41;;;;;;;8.20;6.15;;;19.10;79.50;;;;;;5023013;28;20042;-71
2021/07/04 04:35:08;;;;;;;10.13;6.95;;;19.20;79.40;;;;;;5040118;28;20033;-71
2021/07/04 04:37:34;;;;;;;9.38;6.53;;;19.20;79.80;;;;;;4997741;28;20355;-71
2021/07/04 04:39:59;;;;;;;10.05;7.18;;;19.20;79.90;;;;;;5024205;28;20029;-71
2021/07/04 04:42:25;;;;;;;9.43;6.38;;;19.30;79.90;;;;;;5023177;28;20045;-71
2021/07/04 04:44:51;;;;;;;8.77;6.60;;;19.30;79.80;;;;;;5023956;28;20034;-71
2021/07/04 04:47:16;;;;;;;9.40;6.43;;;19.20;79.80;;;;;;5023384;28;20038;-71
2021/07/04 04:49:42;;;;;;;9.65;6.72;;;19.10;80.50;;;;;;5023011;28;20041;-71
2021/07/04 04:52:07;;;;;;;10.45;6.60;;;18.80;81.30;;;;;;5023227;28;20030;-71
2021/07/04 04:54:33;;;;;;;9.60;7.00;;;19.00;80.80;;;;;;5023965;28;20034;-71
2021/07/04 04:57:05;;;;;;;13.00;6.68;;;19.00;80.70;;;;;;5023950;28;20030;-71
2021/07/04 04:59:35;;;;;;;9.82;6.85;;;19.10;80.40;;;;;;5007661;28;20034;-71
2021/07/04 05:02:00;;;;;;;7.85;6.22;;;19.20;80.20;;;;;;5023026;28;20041;-71
2021/07/04 05:04:26;;;;;;;8.15;6.28;;;19.30;79.80;;;;;;5006628;28;20030;-71
2021/07/04 05:06:51;;;;;;;7.88;5.78;;;19.40;79.80;;;;;;5022935;28;20034;-71
2021/07/04 05:09:17;;;;;;;8.13;5.78;;;19.50;79.80;;;;;;5023239;28;20030;-71
2021/07/04 05:11:44;;;;;;;10.57;6.68;;;19.60;79.10;;;;;;5023324;28;20120;-70
2021/07/04 05:14:11;;;;;;;6.82;5.43;;;19.60;78.90;;;;;;5006400;28;20037;-71
2021/07/04 05:16:37;;;;;;;13.10;5.80;;;19.50;79.20;;;;;;5022576;28;20048;-71
2021/07/04 05:19:05;;;;;;;7.68;5.95;;;19.80;78.70;;;;;;5023362;28;20282;-70
2021/07/04 05:21:32;;;;;;;9.00;6.15;;;19.80;78.10;;;;;;5023468;28;20026;-70
2021/07/04 05:23:59;;;;;;;10.02;5.80;;;19.80;78.60;;;;;;5022877;28;20080;-70
2021/07/04 05:26:24;;;;;;;7.45;5.50;;;19.70;79.00;;;;;;5024023;28;20195;-71
2021/07/04 05:28:50;;;;;;;7.47;5.78;;;19.60;79.20;;;;;;5023333;28;20093;-71
2021/07/04 05:31:15;;;;;;;12.55;6.00;;;19.60;79.60;;;;;;5024909;28;20045;-71
2021/07/04 05:33:41;;;;;;;9.75;6.25;;;19.70;79.50;;;;;;5028160;28;20221;-71
2021/07/04 05:36:06;;;;;;;7.75;5.60;;;19.50;79.90;;;;;;5027424;28;20325;-72
2021/07/04 05:38:34;;;;;;;8.05;5.93;;;19.40;80.10;;;;;;5027073;28;20034;-72
2021/07/04 05:41:00;;;;;;;9.15;6.28;;;19.40;80.10;;;;;;5026552;28;20353;-71
2021/07/04 05:43:26;;;;;;;10.60;6.65;;;19.50;80.00;;;;;;5026652;28;20044;-71
2021/07/04 05:45:51;;;;;;;7.25;6.05;;;19.50;80.60;;;;;;5026316;28;20101;-72
2021/07/04 05:48:17;;;;;;;9.15;6.40;;;19.50;80.60;;;;;;5026928;28;20022;-71
2021/07/04 05:50:42;;;;;;;8.05;5.88;;;19.50;80.10;;;;;;5009962;28;20038;-72
2021/07/04 05:53:08;;;;;;;8.60;5.20;;;19.50;80.40;;;;;;5026396;28;20045;-71
2021/07/04 05:55:33;;;;;;;7.75;5.82;;;19.30;80.20;;;;;;5010004;28;20034;-71
2021/07/04 05:57:59;;;;;;;7.05;5.45;;;19.30;80.10;;;;;;5027443;28;20054;-72
2021/07/04 06:00:25;;;;;;;7.80;5.90;;;19.50;79.20;;;;;;5027059;28;20037;-72
2021/07/04 06:02:50;;;;;;;8.63;5.95;;;19.60;78.80;;;;;;5028004;28;20213;-72
2021/07/04 06:05:17;;;;;;;8.15;5.97;;;19.60;79.70;;;;;;5010866;28;20041;-71
2021/07/04 06:07:43;;;;;;;7.47;5.32;;;19.70;79.30;;;;;;5010270;28;20045;-72
2021/07/04 06:10:10;;;;;;;7.43;5.43;;;19.80;78.70;;;;;;5026378;28;20351;-71
2021/07/04 06:12:35;;;;;;;7.00;5.20;;;19.80;78.30;;;;;;5026086;28;20118;-71
2021/07/04 06:15:01;;;;;;;6.90;5.15;;;19.80;78.90;;;;;;5028062;28;20037;-71
2021/07/04 06:17:26;;;;;;;9.95;5.28;;;20.00;78.40;;;;;;5026275;28;20217;-71
2021/07/04 06:19:52;;;;;;;6.88;5.45;;;19.90;78.70;;;;;;5025892;28;20033;-71
2021/07/04 06:22:17;;;;;;;7.75;5.03;;;19.80;77.70;;;;;;5025594;28;20053;-71
2021/07/04 06:24:43;;;;;;;6.35;5.07;;;19.90;77.70;;;;;;5026873;28;20030;-71
2021/07/04 06:27:09;;;;;;;5.78;4.88;;;20.10;76.50;;;;;;5010044;28;20038;-72
2021/07/04 06:29:34;;;;;;;9.20;5.03;;;20.10;77.60;;;;;;5026098;28;20042;-71
2021/07/04 06:32:00;;;;;;;7.25;5.47;;;20.00;78.00;;;;;;5025260;28;20068;-71
2021/07/04 06:34:25;;;;;;;6.80;4.82;;;19.90;78.60;;;;;;5025680;28;20040;-71
2021/07/04 06:36:51;;;;;;;5.63;4.38;;;19.90;78.20;;;;;;5026494;28;20113;-71
2021/07/04 06:39:16;;;;;;;8.27;4.82;;;20.10;78.00;;;;;;5025935;28;20038;-71
2021/07/04 06:41:42;;;;;;;5.68;4.50;;;20.30;77.70;;;;;;5008997;28;20061;-71
2021/07/04 06:44:07;;;;;;;7.85;4.75;;;20.40;76.80;;;;;;5025648;28;20329;-71
2021/07/04 06:46:33;;;;;;;6.03;4.72;;;20.50;76.60;;;;;;5026605;28;20105;-71
2021/07/04 06:48:58;;;;;;;8.40;4.68;;;20.40;77.00;;;;;;5026566;28;20025;-71
2021/07/04 06:51:24;;;;;;;6.75;4.57;;;20.30;77.20;;;;;;5025497;28;20069;-72
2021/07/04 06:53:49;;;;;;;5.63;4.53;;;20.30;77.60;;;;;;5026967;28;20062;-71
2021/07/04 06:56:15;;;;;;;6.25;4.72;;;20.30;77.80;;;;;;5009290;28;20080;-71
2021/07/04 06:58:40;;;;;;;5.18;4.05;;;20.50;77.50;;;;;;5026467;28;20257;-71
2021/07/04 07:01:08;;;;;;;5.72;4.18;;;20.50;77.00;;;;;;5025203;28;20385;-71
2021/07/04 07:03:34;;;;;;;4.90;4.00;;;20.40;76.60;;;;;;5026027;28;20321;-71
2021/07/04 07:05:59;;;;;;;5.03;4.22;;;20.40;77.10;;;;;;5025417;28;20049;-71
2021/07/04 07:08:25;;;;;;;8.50;4.20;;;20.30;77.20;;;;;;5025015;28;20349;-71
2021/07/04 07:10:50;;;;;;;10.02;4.10;;;20.30;77.70;;;;;;5026178;28;20045;-71
2021/07/04 07:13:16;;;;;;;4.90;3.75;;;20.50;76.50;;;;;;5024256;28;20038;-71
2021/07/04 07:15:44;;;;;;;4.93;3.63;;;20.60;76.50;;;;;;5008352;28;20183;-71
2021/07/04 07:18:10;;;;;;;5.53;3.95;;;20.70;76.10;;;;;;5026348;28;20030;-71
2021/07/04 07:20:37;;;;;;;5.45;3.97;;;20.70;75.30;;;;;;5024615;28;20120;-71
2021/07/04 07:23:02;;;;;;;5.45;3.85;;;20.60;75.90;;;;;;5008002;28;20042;-71
2021/07/04 07:25:28;;;;;;;5.13;3.90;;;20.50;75.90;;;;;;5024457;28;20042;-71
2021/07/04 07:27:53;;;;;;;4.88;3.60;;;20.40;76.30;;;;;;5024387;28;20036;-71
2021/07/04 07:30:21;;;;;;;6.70;3.58;;;20.30;75.90;;;;;;5024892;28;20321;-72
2021/07/04 07:32:47;;;;;;;4.50;3.55;;;20.40;76.30;;;;;;5024670;28;20060;-71
2021/07/04 07:35:13;;;;;;;4.22;3.10;;;20.60;75.20;;;;;;5024633;28;20030;-71
2021/07/04 07:37:39;;;;;;;3.72;3.33;;;20.60;74.90;;;;;;5025695;28;20030;-71
2021/07/04 07:40:05;;;;;;;4.70;3.20;;;20.40;75.70;;;;;;5025384;28;20037;-71
2021/07/04 07:42:30;;;;;;;4.03;3.22;;;20.60;75.00;;;;;;5024188;28;20034;-71
2021/07/04 07:44:56;;;;;;;4.53;3.30;;;20.60;74.30;;;;;;5025123;28;20202;-71
2021/07/04 07:47:22;;;;;;;4.63;3.20;;;20.60;74.70;;;;;;5024573;28;20038;-71
2021/07/04 07:49:47;;;;;;;4.00;3.00;;;20.60;74.40;;;;;;5025284;28;20096;-71
2021/07/04 07:52:13;;;;;;;4.68;2.90;;;20.60;74.70;;;;;;5025194;28;20084;-71
2021/07/04 07:54:38;;;;;;;5.60;2.72;;;20.60;74.90;;;;;;5023272;28;20083;-71
2021/07/04 07:57:05;;;;;;;5.05;3.05;;;20.30;74.70;;;;;;5024761;28;20095;-70
2021/07/04 07:59:30;;;;;;;4.70;3.17;;;20.00;74.80;;;;;;5024422;28;20298;-71
2021/07/04 08:01:56;;;;;;;4.88;3.42;;;20.10;76.20;;;;;;5023860;28;20045;-70
2021/07/04 08:04:22;;;;;;;3.88;3.20;;;20.20;76.50;;;;;;5023556;28;20076;-71
2021/07/04 08:06:47;;;;;;;4.35;3.35;;;20.20;76.80;;;;;;5023737;28;20033;-71
2021/07/04 08:09:13;;;;;;;4.15;3.13;;;20.40;77.10;;;;;;5007924;28;20030;-71
2021/07/04 08:11:38;;;;;;;5.78;3.70;;;20.30;75.90;;;;;;5023732;28;20108;-70
2021/07/04 08:14:04;;;;;;;5.15;3.13;;;20.50;76.40;;;;;;5024434;28;20077;-71
2021/07/04 08:16:29;;;;;;;5.82;3.30;;;20.50;75.90;;;;;;5023360;28;20036;-71
2021/07/04 08:18:55;;;;;;;5.15;3.20;;;20.70;76.20;;;;;;5006978;28;20025;-71
2021/07/04 08:21:21;;;;;;;4.50;3.42;;;20.20;76.10;;;;;;5007317;28;20030;-71
2021/07/04 08:23:46;;;;;;;4.72;3.50;;;20.10;76.50;;;;;;5023928;28;20334;-71
2021/07/04 08:26:12;;;;;;;4.13;2.92;;;20.10;78.20;;;;;;5023731;28;20037;-71
2021/07/04 08:28:38;;;;;;;3.78;3.17;;;20.20;76.00;;;;;;5023213;28;20065;-71
2021/07/04 08:31:03;;;;;;;6.25;2.90;;;20.40;76.20;;;;;;5023488;28;20253;-71
2021/07/04 08:33:29;;;;;;;4.68;2.45;;;20.60;76.10;;;;;;5023445;28;20030;-71
2021/07/04 08:35:55;;;;;;;5.25;2.60;;;20.70;74.30;;;;;;5024848;28;20026;-70
2021/07/04 08:38:20;;;;;;;3.15;2.45;;;21.00;72.70;;;;;;5023758;28;20033;-71
2021/07/04 08:40:46;;;;;;;3.83;2.28;;;21.10;72.60;;;;;;5024300;28;20030;-71
2021/07/04 08:43:31;;;;;;;2.53;2.00;;;20.80;71.20;;;;;;5024074;28;20042;-71
2021/07/04 08:45:56;;;;;;;3.67;2.40;;;20.80;70.90;;;;;;5006817;28;20030;-71
2021/07/04 08:48:22;;;;;;;4.60;2.00;;;20.80;72.80;;;;;;5023167;28;20093;-71
2021/07/04 08:50:48;;;;;;;3.58;2.28;;;20.90;72.00;;;;;;5023614;28;20050;-70
2021/07/04 08:53:13;;;;;;;2.15;1.70;;;21.00;70.40;;;;;;5023282;28;20137;-71
2021/07/04 08:55:42;;;;;;;2.53;1.90;;;21.30;71.60;;;;;;5023365;28;20033;-71
2021/07/04 08:58:07;;;;;;;5.05;2.28;;;21.40;69.20;;;;;;5023075;28;20046;-71
2021/07/04 09:00:33;;;;;;;2.63;1.83;;;21.50;71.50;;;;;;5023189;28;20040;-71
2021/07/04 09:02:58;;;;;;;2.83;1.85;;;21.50;68.40;;;;;;5006899;28;20045;-71
2021/07/04 09:05:24;;;;;;;3.35;1.75;;;21.80;69.20;;;;;;5024293;28;20105;-71
2021/07/04 09:07:50;;;;;;;2.72;1.70;;;21.80;68.20;;;;;;5022877;28;20038;-71
2021/07/04 09:10:19;;;;;;;3.22;1.73;;;21.80;63.90;;;;;;5023672;28;20337;-71
2021/07/04 09:12:53;;;;;;;2.17;1.65;;;22.00;70.80;;;;;;5022685;28;20034;-71
2021/07/04 09:15:21;;;;;;;2.13;1.50;;;21.80;66.00;;;;;;5022781;28;20026;-71
2021/07/04 09:17:51;;;;;;;3.63;1.70;;;21.70;65.50;;;;;;5023376;28;20034;-71
2021/07/04 09:20:37;;;;;;;4.13;1.70;;;22.00;66.20;;;;;;5023127;28;20061;-71
2021/07/04 09:23:03;;;;;;;2.95;1.90;;;22.10;69.90;;;;;;5022644;28;20113;-71
2021/07/04 09:25:36;;;;;;;3.05;1.75;;;22.30;66.10;;;;;;5022606;28;20038;-71
2021/07/04 09:28:01;;;;;;;2.33;1.80;;;22.30;66.50;;;;;;5023651;28;20054;-71
2021/07/04 09:30:55;;;;;;;4.22;1.88;;;22.30;64.80;;;;;;5022822;28;20045;-71
2021/07/04 09:33:26;;;;;;;3.10;1.90;;;22.70;65.40;;;;;;5022383;28;20085;-71
2021/07/04 09:36:01;;;;;;;2.58;1.88;;;22.40;63.30;;;;;;5023508;28;20026;-71
2021/07/04 09:38:37;;;;;;;2.95;1.80;;;22.70;65.20;;;;;;5024101;28;20041;-71
2021/07/04 09:41:05;;;;;;;2.85;1.90;;;23.00;67.00;;;;;;5022451;28;20046;-71
2021/07/04 09:43:31;;;;;;;4.05;1.70;;;23.20;65.40;;;;;;5022739;28;20030;-71
2021/07/04 09:46:01;;;;;;;3.15;2.00;;;23.10;63.60;;;;;;5022575;28;20205;-71
2021/07/04 09:48:29;;;;;;;2.70;2.10;;;23.10;62.00;;;;;;5022928;28;20029;-71
2021/07/04 09:51:11;;;;;;;3.05;2.15;;;22.90;63.60;;;;;;5023995;28;20348;-71
2021/07/04 09:53:54;;;;;;;2.63;1.90;;;23.10;67.70;;;;;;5007487;28;20084;-71
2021/07/04 09:56:21;;;;;;;3.28;2.40;;;23.30;65.50;;;;;;5006315;28;20034;-71
2021/07/04 09:58:48;;;;;;;3.22;2.08;;;23.50;65.40;;;;;;5022537;28;20037;-71
2021/07/04 10:01:31;;;;;;;4.13;2.20;;;23.60;61.60;;;;;;5022462;28;20384;-71
2021/07/04 10:03:56;;;;;;;2.78;2.10;;;23.50;62.70;;;;;;5022220;28;20203;-71
2021/07/04 10:06:22;;;;;;;3.63;2.50;;;23.80;65.10;;;;;;5022455;28;20053;-71
2021/07/04 10:08:47;;;;;;;3.08;2.00;;;23.90;64.70;;;;;;5022619;28;20092;-72
2021/07/04 10:11:16;;;;;;;6.25;2.17;;;23.90;64.00;;;;;;5006019;28;20196;-71
2021/07/04 10:13:43;;;;;;;2.80;2.17;;;24.10;63.20;;;;;;5021798;28;20033;-71
2021/07/04 10:16:12;;;;;;;3.15;1.98;;;24.00;61.20;;;;;;5022816;28;20026;-71
2021/07/04 10:18:38;;;;;;;3.05;2.28;;;24.20;64.20;;;;;;5026830;28;20061;-71
2021/07/04 10:21:04;;;;;;;2.70;2.15;;;24.50;64.30;;;;;;5027650;28;20072;-72
2021/07/04 10:23:29;;;;;;;3.47;2.33;;;24.70;62.70;;;;;;5025631;28;20058;-71
2021/07/04 10:25:57;;;;;;;2.92;2.17;;;24.80;63.80;;;;;;5009527;28;20045;-72
2021/07/04 10:28:30;;;;;;;3.78;2.30;;;24.80;60.80;;;;;;5025596;28;20084;-71
2021/07/04 10:30:56;;;;;;;2.78;2.28;;;24.70;57.70;;;;;;4992937;28;20033;-71
2021/07/04 10:33:23;;;;;;;6.15;2.50;;;24.90;61.20;;;;;;5025953;28;20321;-71
2021/07/04 10:36:08;;;;;;;3.60;2.08;;;24.90;59.80;;;;;;5026269;28;20328;-71
2021/07/04 10:38:47;;;;;;;2.63;1.77;;;24.40;57.40;;;;;;5026499;28;20035;-71
2021/07/04 10:41:18;;;;;;;2.70;1.73;;;24.50;59.20;;;;;;5010652;28;20036;-71
2021/07/04 10:43:57;;;;;;;3.25;1.52;;;24.80;60.60;;;;;;5025734;28;20065;-71
2021/07/04 10:46:58;;;;;;;3.45;1.50;;;24.90;59.50;;;;;;5041882;28;20033;-71
2021/07/04 10:49:24;;;;;;;;;;;25.10;53.50;;;;;;5005091;28;20038;-71
2021/07/04 10:51:58;;;;;;;2.38;1.65;;;25.10;53.40;;;;;;5021447;28;20097;-71
2021/07/04 10:54:38;;;;;;;2.35;1.63;;;25.10;54.40;;;;;;5025395;28;20041;-71
2021/07/04 10:57:05;;;;;;;2.70;1.63;;;25.40;57.50;;;;;;5027055;28;20375;-72
2021/07/04 10:59:31;;;;;;;2.85;1.70;;;25.30;56.70;;;;;;5025613;28;20026;-71
2021/07/04 11:01:58;;;;;;;2.20;1.58;;;25.10;54.00;;;;;;5025170;28;20038;-72
2021/07/04 11:04:30;;;;;;;4.10;1.77;;;25.10;56.70;;;;;;5014368;28;20038;-71
2021/07/04 11:07:05;;;;;;;3.50;2.00;;;25.20;58.70;;;;;;5026040;28;20030;-71
2021/07/04 11:09:52;;;;;;;2.38;1.83;;;25.30;59.00;;;;;;5008619;28;20022;-72
2021/07/04 11:12:24;;;;;;;2.47;1.90;;;25.00;57.50;;;;;;5026942;28;20064;-72
2021/07/04 11:15:12;;;;;;;2.42;1.75;;;24.90;57.10;;;;;;5026580;28;20105;-72
2021/07/04 11:18:02;;;;;;;2.40;1.88;;;25.10;58.80;;;;;;5022872;28;20340;-71
2021/07/04 11:20:40;;;;;;;3.13;1.90;;;25.20;58.50;;;;;;5025664;28;20356;-72
2021/07/04 11:23:10;;;;;;;2.55;2.00;;;25.00;57.50;;;;;;5025600;28;20049;-71
2021/07/04 11:25:40;;;;;;;2.67;1.88;;;24.80;58.10;;;;;;5024701;28;20034;-71
2021/07/04 11:28:33;;;;;;;2.28;1.80;;;25.00;58.60;;;;;;5026122;28;20269;-71
2021/07/04 11:30:58;;;;;;;3.15;2.15;;;24.90;58.80;;;;;;5007542;28;20026;-71
2021/07/04 11:33:37;;;;;;;2.90;2.10;;;24.80;60.20;;;;;;5025329;28;20367;-71
2021/07/04 11:36:03;;;;;;;2.88;1.90;;;24.90;59.10;;;;;;5025206;28;20045;-71
2021/07/04 11:38:34;;;;;;;2.75;1.80;;;24.60;57.70;;;;;;5024657;28;20037;-71
2021/07/04 11:40:59;;;;;;;3.00;1.92;;;24.50;56.40;;;;;;5024848;28;20101;-71
2021/07/04 11:43:26;;;;;;;2.75;1.90;;;24.70;58.30;;;;;;5024493;28;20038;-72
2021/07/04 11:45:54;;;;;;;3.00;2.17;;;24.80;57.10;;;;;;5024315;28;20056;-71
2021/07/04 11:48:21;;;;;;;3.15;1.80;;;25.00;57.30;;;;;;5024381;28;20101;-71
2021/07/04 11:50:51;;;;;;;2.30;1.70;;;25.20;57.30;;;;;;5008102;28;20101;-71
2021/07/04 11:53:17;;;;;;;4.18;1.60;;;25.00;58.20;;;;;;5024407;28;20037;-71
2021/07/04 11:56:02;;;;;;;4.57;2.10;;;24.90;54.80;;;;;;5024036;28;20033;-71
2021/07/04 11:58:28;;;;;;;3.25;2.40;;;25.10;57.20;;;;;;5023917;28;20041;-71
2021/07/04 12:00:54;;;;;;;3.75;2.53;;;25.10;58.90;;;;;;5023878;28;20260;-71
2021/07/04 12:03:23;;;;;;;3.20;2.20;;;24.90;59.70;;;;;;5007470;28;20026;-71
2021/07/04 12:05:49;;;;;;;3.50;2.13;;;24.90;60.00;;;;;;5008316;28;20205;-71
2021/07/04 12:08:15;;;;;;;3.42;2.35;;;24.80;59.90;;;;;;5040786;28;20050;-72
2021/07/04 12:10:51;;;;;;;4.32;2.70;;;24.80;60.90;;;;;;5023578;28;20072;-71
2021/07/04 12:13:17;;;;;;;4.97;2.85;;;25.00;60.10;;;;;;5023685;28;20341;-72
2021/07/04 12:15:48;;;;;;;3.03;2.08;;;24.90;59.90;;;;;;5023475;28;20040;-72
2021/07/04 12:18:15;;;;;;;3.17;2.22;;;24.80;59.90;;;;;;5024438;28;20032;-72
2021/07/04 12:20:40;;;;;;;3.15;2.30;;;24.80;59.70;;;;;;5023473;28;20041;-71
2021/07/04 12:23:09;;;;;;;3.75;2.08;;;24.70;59.20;;;;;;5023527;28;20058;-71
2021/07/04 12:25:38;;;;;;;4.80;2.40;;;24.70;58.60;;;;;;5025199;28;20038;-72
2021/07/04 12:28:11;;;;;;;2.60;2.17;;;24.70;58.90;;;;;;5024519;28;20061;-71
2021/07/04 12:30:38;;;;;;;3.33;2.20;;;24.90;59.20;;;;;;5024168;28;20037;-72
2021/07/04 12:33:12;;;;;;;3.03;2.13;;;25.10;59.00;;;;;;5024552;28;20034;-71
2021/07/04 12:35:54;;;;;;;3.70;2.30;;;25.30;58.10;;;;;;5025337;28;20069;-72
2021/07/04 12:38:33;;;;;;;3.65;2.35;;;25.30;57.30;;;;;;5024975;28;20377;-71
2021/07/04 12:41:10;;;;;;;5.72;2.50;;;25.10;57.40;;;;;;5023112;28;20061;-72
2021/07/04 12:43:39;;;;;;;3.33;2.40;;;25.00;57.50;;;;;;5023259;28;20053;-72
2021/07/04 12:46:30;;;;;;;3.15;2.15;;;25.00;58.90;;;;;;5023235;28;20056;-71